Time;durP1;ratioP1;P1;durP2;ratioP2;P2;SDS_P1;SDS_P2;PMS_P1;PMS_P2;Temp;Humidity;BMP_temperature;BMP_pressure;BME280_temperature;BME280_humidity;BME280_pressure;Samples;Min_cycle;Max_cycle;Signal;HPM_P1;HPM_P2
2023/04/10 00:01:12;;;;;;;40.75;25.50;;;8.10;99.90;;;;;;5073108;28;20052;-63
2023/04/10 00:03:40;;;;;;;38.97;26.27;;;8.00;99.90;;;;;;5072518;28;20110;-62
2023/04/10 00:06:07;;;;;;;40.47;26.05;;;8.00;99.90;;;;;;5073617;28;20061;-62
2023/04/10 00:08:34;;;;;;;37.17;25.48;;;8.00;99.90;;;;;;5072267;28;20131;-63
2023/04/10 00:11:01;;;;;;;41.10;26.20;;;7.90;99.90;;;;;;5073120;28;20488;-64
2023/04/10 00:13:28;;;;;;;40.70;26.75;;;7.90;99.90;;;;;;5072766;28;20053;-63
2023/04/10 00:15:56;;;;;;;42.92;28.40;;;7.90;99.90;;;;;;5073974;28;20048;-63
2023/04/10 00:18:23;;;;;;;41.03;26.55;;;7.80;99.90;;;;;;5072997;28;20068;-63
2023/04/10 00:20:50;;;;;;;38.95;26.13;;;7.80;99.90;;;;;;5073712;28;20138;-63
2023/04/10 00:23:17;;;;;;;43.00;28.40;;;7.80;99.90;;;;;;5073598;28;20045;-63
2023/04/10 00:25:44;;;;;;;46.10;28.30;;;7.70;99.90;;;;;;5072965;28;20048;-63
2023/04/10 00:28:11;;;;;;;42.17;27.58;;;7.70;99.90;;;;;;5072351;28;20451;-63
2023/04/10 00:30:38;;;;;;;39.75;27.20;;;7.60;99.90;;;;;;5071525;28;20044;-63
2023/04/10 00:33:06;;;;;;;41.15;26.80;;;7.60;99.90;;;;;;5071774;28;20048;-63
2023/04/10 00:35:33;;;;;;;44.70;28.88;;;7.60;99.90;;;;;;5072199;28;20094;-63
2023/04/10 00:38:00;;;;;;;42.85;27.77;;;7.50;99.90;;;;;;5073237;28;20052;-63
2023/04/10 00:40:29;;;;;;;47.75;29.17;;;7.50;99.90;;;;;;5071811;28;20538;-64
2023/04/10 00:42:56;;;;;;;43.42;29.77;;;7.50;99.90;;;;;;5070153;28;20041;-62
2023/04/10 00:45:22;;;;;;;45.17;30.48;;;7.40;99.90;;;;;;5072176;28;20064;-62
2023/04/10 00:47:50;;;;;;;45.00;29.85;;;7.40;99.90;;;;;;5071644;28;20059;-62
2023/04/10 00:50:19;;;;;;;49.92;31.55;;;7.40;99.90;;;;;;5071868;28;20048;-63
2023/04/10 00:52:46;;;;;;;44.55;31.45;;;7.40;99.90;;;;;;5072845;28;20381;-62
2023/04/10 00:55:14;;;;;;;47.55;30.48;;;7.40;99.90;;;;;;5072588;28;20048;-63
2023/04/10 00:57:44;;;;;;;48.17;32.40;;;7.30;99.90;;;;;;5071909;28;20067;-63
2023/04/10 01:00:12;;;;;;;48.30;31.43;;;7.30;99.90;;;;;;5072263;28;20053;-63
2023/04/10 01:02:39;;;;;;;49.20;31.15;;;7.20;99.90;;;;;;5072820;28;20291;-63
2023/04/10 01:05:07;;;;;;;50.13;32.00;;;7.20;99.90;;;;;;5072530;28;20060;-63
2023/04/10 01:07:49;;;;;;;50.10;32.33;;;7.20;99.90;;;;;;5072429;28;20127;-62
2023/04/10 01:10:25;;;;;;;50.25;32.08;;;7.20;99.90;;;;;;5072285;28;20048;-63
2023/04/10 01:13:04;;;;;;;48.45;32.85;;;7.10;99.90;;;;;;5072730;28;20127;-63
2023/04/10 01:15:37;;;;;;;57.90;36.47;;;7.10;99.90;;;;;;5070879;28;20407;-62
2023/04/10 01:18:09;;;;;;;53.78;35.60;;;7.10;99.90;;;;;;5070552;28;20048;-62
2023/04/10 01:20:40;;;;;;;53.95;33.97;;;7.00;99.90;;;;;;5072062;28;20048;-63
2023/04/10 01:23:51;;;;;;;56.03;34.55;;;7.00;99.90;;;;;;5071937;28;20044;-63
2023/04/10 01:26:31;;;;;;;58.88;36.83;;;7.00;99.90;;;;;;5050965;28;20110;-62
2023/04/10 01:29:03;;;;;;;56.30;35.13;;;6.90;99.90;;;;;;5071700;28;20102;-62
2023/04/10 01:31:36;;;;;;;53.88;35.38;;;6.90;99.90;;;;;;5071348;28;20503;-63
2023/04/10 01:34:07;;;;;;;57.80;36.25;;;6.90;99.90;;;;;;5071113;28;20123;-62
2023/04/10 01:36:40;;;;;;;60.33;35.65;;;6.90;99.90;;;;;;5070610;28;20075;-63
2023/04/10 01:39:09;;;;;;;57.85;36.15;;;6.80;99.90;;;;;;5070983;28;20055;-62
2023/04/10 01:41:37;;;;;;;61.33;38.55;;;6.80;99.90;;;;;;5071237;28;20048;-62
2023/04/10 01:44:07;;;;;;;59.70;36.80;;;6.80;99.90;;;;;;5069480;28;20071;-62
2023/04/10 01:46:34;;;;;;;65.28;38.67;;;6.80;99.90;;;;;;5072183;28;20106;-63
2023/04/10 01:49:03;;;;;;;57.17;34.63;;;6.70;99.90;;;;;;5071942;28;20049;-62
2023/04/10 01:51:31;;;;;;;62.10;37.67;;;6.80;99.90;;;;;;5069712;28;20091;-63
2023/04/10 01:54:00;;;;;;;56.95;37.30;;;6.70;99.90;;;;;;5071965;28;20060;-63
2023/04/10 01:56:28;;;;;;;61.60;38.92;;;6.80;99.90;;;;;;5071460;28;20492;-63
2023/04/10 01:58:56;;;;;;;63.05;39.85;;;6.80;99.90;;;;;;5069816;28;20094;-63
2023/04/10 02:01:24;;;;;;;59.35;38.20;;;6.70;99.90;;;;;;5071879;28;20454;-61
2023/04/10 02:03:51;;;;;;;62.67;41.25;;;6.70;99.90;;;;;;5071191;28;20094;-63
2023/04/10 02:06:27;;;;;;;60.60;38.75;;;6.70;99.90;;;;;;5072147;28;20044;-63
2023/04/10 02:08:58;;;;;;;61.35;40.90;;;6.70;99.90;;;;;;5071562;28;20549;-62
2023/04/10 02:11:37;;;;;;;68.55;39.92;;;6.70;99.90;;;;;;5070275;28;20056;-62
2023/04/10 02:14:08;;;;;;;68.30;40.50;;;6.70;99.90;;;;;;5070737;28;20063;-61
2023/04/10 02:16:38;;;;;;;61.58;40.88;;;6.70;99.90;;;;;;5072063;28;20408;-62
2023/04/10 02:19:06;;;;;;;63.38;41.50;;;6.70;99.90;;;;;;5069850;28;20132;-63
2023/04/10 02:21:34;;;;;;;63.17;40.17;;;6.70;99.90;;;;;;5071901;28;20052;-62
2023/04/10 02:24:01;;;;;;;58.83;39.08;;;6.70;99.90;;;;;;5070526;28;20377;-61
2023/04/10 02:26:28;;;;;;;65.63;41.35;;;6.70;99.90;;;;;;5101873;28;20400;-63
2023/04/10 02:28:55;;;;;;;60.03;37.33;;;6.60;99.90;;;;;;5070192;28;20048;-63
2023/04/10 02:31:22;;;;;;;56.35;37.72;;;6.60;99.90;;;;;;5072089;28;20044;-64
2023/04/10 02:33:50;;;;;;;57.42;36.70;;;6.60;99.90;;;;;;5073531;28;20044;-63
2023/04/10 02:36:17;;;;;;;66.15;39.75;;;6.60;99.90;;;;;;5075751;28;20098;-63
2023/04/10 02:38:44;;;;;;;63.13;41.22;;;6.70;99.90;;;;;;5073842;28;20503;-62
2023/04/10 02:41:10;;;;;;;62.80;39.92;;;6.60;99.90;;;;;;5075490;28;20063;-62
2023/04/10 02:43:37;;;;;;;64.00;40.45;;;6.70;99.90;;;;;;5073816;28;20037;-63
2023/04/10 02:46:05;;;;;;;61.15;38.83;;;6.60;99.90;;;;;;5073631;28;20119;-63
2023/04/10 02:48:31;;;;;;;63.88;40.97;;;6.60;99.90;;;;;;5075465;28;20045;-63
2023/04/10 02:51:00;;;;;;;61.55;39.83;;;6.60;99.90;;;;;;5074231;28;20052;-63
2023/04/10 02:53:27;;;;;;;71.63;42.10;;;6.60;99.90;;;;;;5074831;28;20066;-64
2023/04/10 02:55:54;;;;;;;66.38;40.78;;;6.60;99.90;;;;;;5074010;28;20048;-63
2023/04/10 02:58:21;;;;;;;63.05;39.72;;;6.60;99.90;;;;;;5074038;28;20140;-63
2023/04/10 03:00:49;;;;;;;61.88;38.88;;;6.60;99.90;;;;;;5073528;28;20054;-63
2023/04/10 03:03:16;;;;;;;60.47;40.15;;;6.60;99.90;;;;;;5075177;28;20142;-63
2023/04/10 03:05:45;;;;;;;60.92;39.13;;;6.60;99.90;;;;;;5073573;28;20094;-62
2023/04/10 03:08:14;;;;;;;62.97;39.10;;;6.60;99.90;;;;;;5073027;28;20044;-63
2023/04/10 03:10:43;;;;;;;59.63;38.15;;;6.60;99.90;;;;;;5073976;28;20496;-62
2023/04/10 03:13:09;;;;;;;58.60;39.22;;;6.60;99.90;;;;;;5075243;28;20101;-63
2023/04/10 03:15:36;;;;;;;57.53;39.33;;;6.60;99.90;;;;;;5072975;28;20048;-62
2023/04/10 03:18:04;;;;;;;58.97;39.95;;;6.60;99.90;;;;;;5075034;28;20058;-63
2023/04/10 03:20:32;;;;;;;62.35;37.22;;;6.60;99.90;;;;;;5072348;28;20480;-62
2023/04/10 03:22:59;;;;;;;59.67;38.97;;;6.60;99.90;;;;;;5074118;28;20128;-63
2023/04/10 03:25:27;;;;;;;54.70;37.50;;;6.60;99.90;;;;;;5074878;28;20051;-63
2023/04/10 03:27:54;;;;;;;56.17;38.08;;;6.60;99.90;;;;;;5074175;28;20047;-63
2023/04/10 03:30:21;;;;;;;57.00;38.15;;;6.70;99.90;;;;;;5074690;28;20048;-63
2023/04/10 03:32:48;;;;;;;58.22;37.25;;;6.50;99.90;;;;;;5073019;28;20045;-62
2023/04/10 03:35:15;;;;;;;56.15;36.20;;;6.50;99.90;;;;;;5073719;28;20400;-63
2023/04/10 03:37:42;;;;;;;53.67;34.72;;;6.50;99.90;;;;;;5074824;28;20098;-63
2023/04/10 03:40:10;;;;;;;50.72;35.03;;;6.60;99.90;;;;;;5074381;28;20041;-63
2023/04/10 03:42:38;;;;;;;53.83;35.88;;;6.50;99.90;;;;;;5074103;28;20090;-63
2023/04/10 03:45:06;;;;;;;54.53;36.55;;;6.50;99.90;;;;;;5070185;28;20041;-62
2023/04/10 03:47:34;;;;;;;54.13;35.58;;;6.50;99.90;;;;;;5074331;28;20539;-62
2023/04/10 03:50:01;;;;;;;53.20;35.55;;;6.50;99.90;;;;;;5072577;28;20056;-63
2023/04/10 03:52:28;;;;;;;53.72;35.55;;;6.40;99.90;;;;;;5073283;28;20503;-63
2023/04/10 03:54:55;;;;;;;55.03;35.78;;;6.50;99.90;;;;;;5074668;28;20097;-63
2023/04/10 03:57:22;;;;;;;56.50;36.70;;;6.50;99.90;;;;;;5072510;28;20135;-63
2023/04/10 03:59:50;;;;;;;51.50;35.95;;;6.50;99.90;;;;;;5074131;28;20400;-62
2023/04/10 04:02:17;;;;;;;53.33;36.28;;;6.50;99.90;;;;;;5074133;28;20044;-63
2023/04/10 04:04:44;;;;;;;53.20;37.08;;;6.50;99.90;;;;;;5073198;28;20063;-64
2023/04/10 04:07:12;;;;;;;56.08;36.45;;;6.40;99.90;;;;;;5071794;28;20080;-63
2023/04/10 04:09:39;;;;;;;55.25;35.88;;;6.40;99.90;;;;;;5072856;28;20972;-63
2023/04/10 04:12:07;;;;;;;52.22;35.45;;;6.40;99.90;;;;;;5073392;28;20052;-63
2023/04/10 04:14:34;;;;;;;52.47;35.83;;;6.40;99.90;;;;;;5072860;28;20475;-63
2023/04/10 04:17:03;;;;;;;53.97;35.72;;;6.40;99.90;;;;;;5071741;28;20048;-64
2023/04/10 04:19:30;;;;;;;54.33;36.28;;;6.40;99.90;;;;;;5072029;28;20041;-63
2023/04/10 04:21:59;;;;;;;52.30;36.15;;;6.50;99.90;;;;;;5072580;28;20053;-63
2023/04/10 04:24:26;;;;;;;53.58;35.97;;;6.60;99.90;;;;;;5072068;28;20044;-62
2023/04/10 04:26:53;;;;;;;51.58;34.55;;;6.50;99.90;;;;;;5070418;28;20450;-63
2023/04/10 04:29:20;;;;;;;52.40;36.00;;;6.50;99.90;;;;;;5073367;28;20051;-63
2023/04/10 04:31:47;;;;;;;49.47;35.72;;;6.50;99.90;;;;;;5072870;28;20499;-63
2023/04/10 04:34:15;;;;;;;56.17;36.83;;;6.50;99.90;;;;;;5071616;28;20052;-63
2023/04/10 04:36:42;;;;;;;53.63;36.15;;;6.50;99.90;;;;;;5072413;28;20495;-63
2023/04/10 04:39:09;;;;;;;60.80;38.53;;;6.60;99.90;;;;;;5062141;28;20109;-63
2023/04/10 04:41:36;;;;;;;53.08;38.40;;;6.60;99.90;;;;;;5067315;28;20172;-63
2023/04/10 04:44:03;;;;;;;55.85;37.45;;;6.70;99.90;;;;;;5067151;28;20071;-63
2023/04/10 04:46:30;;;;;;;55.55;34.80;;;6.70;99.90;;;;;;5070615;28;20048;-63
2023/04/10 04:48:57;;;;;;;59.95;37.80;;;6.70;99.90;;;;;;5068257;28;20048;-63
2023/04/10 04:51:25;;;;;;;59.10;38.13;;;6.70;99.90;;;;;;5070227;28;20048;-63
2023/04/10 04:53:52;;;;;;;57.85;37.88;;;6.70;99.90;;;;;;5069006;28;20048;-63
2023/04/10 04:56:19;;;;;;;60.08;39.03;;;6.70;99.90;;;;;;5068982;28;20048;-62
2023/04/10 04:58:46;;;;;;;58.22;38.13;;;6.80;99.90;;;;;;5068996;28;20048;-63
2023/04/10 05:01:13;;;;;;;57.15;38.33;;;6.80;99.90;;;;;;5070003;28;20157;-63
2023/04/10 05:03:40;;;;;;;60.75;39.20;;;6.90;99.90;;;;;;5068873;28;20048;-63
2023/04/10 05:06:07;;;;;;;57.25;38.60;;;6.90;99.90;;;;;;5068769;28;20056;-64
2023/04/10 05:08:35;;;;;;;57.05;38.47;;;7.00;99.90;;;;;;5068593;28;20064;-64
2023/04/10 05:11:02;;;;;;;55.05;38.20;;;7.00;99.90;;;;;;5070110;28;20049;-62
2023/04/10 05:13:29;;;;;;;58.50;38.28;;;7.10;99.90;;;;;;5071451;28;20385;-63
2023/04/10 05:15:56;;;;;;;55.35;37.22;;;7.10;99.90;;;;;;5068929;28;20049;-62
2023/04/10 05:18:23;;;;;;;59.13;40.67;;;7.20;99.90;;;;;;5068795;28;20057;-62
2023/04/10 05:20:50;;;;;;;57.70;38.55;;;7.20;99.90;;;;;;5069819;28;20045;-62
2023/04/10 05:23:17;;;;;;;62.22;38.28;;;7.30;99.90;;;;;;5070869;28;20385;-62
2023/04/10 05:25:45;;;;;;;56.03;38.92;;;7.40;99.90;;;;;;5070414;28;20045;-63
2023/04/10 05:28:12;;;;;;;58.28;37.83;;;7.40;99.90;;;;;;5069826;28;20060;-62
2023/04/10 05:30:39;;;;;;;60.05;39.25;;;7.50;99.90;;;;;;5068214;28;20393;-63
2023/04/10 05:33:06;;;;;;;54.72;37.08;;;7.50;99.90;;;;;;5070918;28;20059;-63
2023/04/10 05:35:33;;;;;;;54.72;35.03;;;7.60;99.90;;;;;;5066434;28;20059;-64
2023/04/10 05:38:00;;;;;;;56.30;37.63;;;7.60;99.90;;;;;;5069178;28;20496;-65
2023/04/10 05:40:28;;;;;;;52.17;36.85;;;7.60;99.90;;;;;;5070625;28;20456;-64
2023/04/10 05:42:56;;;;;;;53.50;37.53;;;7.70;99.90;;;;;;5068243;28;20442;-65
2023/04/10 05:45:23;;;;;;;55.08;36.15;;;7.70;99.90;;;;;;5068940;28;20051;-63
2023/04/10 05:47:50;;;;;;;53.80;37.17;;;7.70;99.90;;;;;;5070316;28;20074;-63
2023/04/10 05:50:17;;;;;;;52.85;34.80;;;7.70;99.90;;;;;;5066429;28;20060;-64
2023/04/10 05:52:45;;;;;;;51.40;37.38;;;7.80;99.90;;;;;;5070165;28;20393;-64
2023/04/10 05:55:12;;;;;;;52.33;35.03;;;7.80;99.90;;;;;;5070101;28;20185;-63
2023/04/10 05:57:39;;;;;;;53.17;35.38;;;7.90;99.90;;;;;;5068098;28;20053;-62
2023/04/10 06:00:09;;;;;;;52.25;34.38;;;7.90;99.90;;;;;;5071031;28;20114;-63
2023/04/10 06:02:35;;;;;;;45.97;32.25;;;8.00;99.90;;;;;;5069816;28;20071;-63
2023/04/10 06:05:02;;;;;;;48.70;32.88;;;8.00;99.90;;;;;;5070835;28;20049;-62
2023/04/10 06:07:31;;;;;;;47.90;32.13;;;8.00;99.90;;;;;;5069539;28;20508;-63
2023/04/10 06:09:58;;;;;;;46.85;33.25;;;8.10;99.90;;;;;;5070759;28;20195;-64
2023/04/10 06:12:25;;;;;;;47.97;31.55;;;8.20;99.90;;;;;;5069688;28;20047;-63
2023/04/10 06:14:52;;;;;;;42.88;31.02;;;8.30;99.90;;;;;;5070110;28;20053;-64
2023/04/10 06:17:22;;;;;;;45.50;30.88;;;8.50;99.90;;;;;;5068145;28;20052;-63
2023/04/10 06:19:49;;;;;;;;;;;8.60;99.90;;;;;;5070899;28;20052;-63
2023/04/10 06:22:16;;;;;;;44.13;30.55;;;8.80;99.90;;;;;;5068021;28;20003;-63
2023/04/10 06:24:43;;;;;;;46.47;30.40;;;9.10;99.90;;;;;;5069121;28;20048;-63
2023/04/10 06:27:11;;;;;;;42.20;27.92;;;9.60;99.90;;;;;;5070214;28;20101;-62
2023/04/10 06:29:38;;;;;;;39.13;27.65;;;10.00;99.90;;;;;;5070486;28;20044;-63
2023/04/10 06:32:05;;;;;;;42.05;28.42;;;10.30;99.90;;;;;;5068881;28;20083;-63
2023/04/10 06:34:33;;;;;;;41.65;27.08;;;10.40;99.90;;;;;;5070975;28;20051;-63
2023/04/10 06:37:00;;;;;;;41.70;28.55;;;10.50;99.90;;;;;;5068299;28;20435;-63
2023/04/10 06:39:27;;;;;;;39.65;28.08;;;10.50;99.90;;;;;;5067746;28;20488;-63
2023/04/10 06:41:53;;;;;;;40.58;28.23;;;10.50;99.90;;;;;;5096888;28;20480;-63
2023/04/10 06:44:20;;;;;;;37.90;26.60;;;10.40;99.90;;;;;;5067371;28;20048;-63
2023/04/10 06:46:47;;;;;;;37.28;27.15;;;10.50;99.90;;;;;;5065118;28;20342;-62
2023/04/10 06:49:14;;;;;;;38.30;26.80;;;10.60;99.90;;;;;;5067930;28;20074;-62
2023/04/10 06:51:44;;;;;;;37.17;26.02;;;10.90;99.90;;;;;;5069015;28;20102;-62
2023/04/10 06:54:11;;;;;;;37.37;27.50;;;11.20;99.90;;;;;;5065518;28;20467;-63
2023/04/10 06:56:38;;;;;;;39.08;25.90;;;11.50;99.90;;;;;;5068603;28;20047;-61
2023/04/10 06:59:05;;;;;;;37.50;25.75;;;11.90;99.90;;;;;;5069776;28;20045;-64
2023/04/10 07:01:32;;;;;;;37.50;25.80;;;12.40;99.90;;;;;;5067874;28;20905;-63
2023/04/10 07:03:59;;;;;;;39.33;26.58;;;12.20;99.90;;;;;;5069487;28;20118;-63
2023/04/10 07:06:26;;;;;;;38.08;24.73;;;12.00;99.90;;;;;;5069423;28;20044;-64
2023/04/10 07:08:54;;;;;;;37.17;26.15;;;11.80;99.90;;;;;;5069910;28;20057;-64
2023/04/10 07:11:21;;;;;;;35.80;25.08;;;11.60;99.90;;;;;;5071470;28;20048;-63
2023/04/10 07:13:52;;;;;;;35.70;25.42;;;11.30;99.90;;;;;;5069434;28;20052;-62
2023/04/10 07:16:19;;;;;;;35.30;24.50;;;11.40;99.90;;;;;;5068095;28;20131;-63
2023/04/10 07:18:45;;;;;;;33.13;24.48;;;11.90;99.90;;;;;;5071154;28;20052;-62
2023/04/10 07:21:12;;;;;;;38.30;23.90;;;12.20;99.90;;;;;;5074563;28;20045;-63
2023/04/10 07:23:39;;;;;;;35.35;24.63;;;12.60;99.90;;;;;;5073226;28;20575;-62
2023/04/10 07:26:08;;;;;;;34.00;23.15;;;12.70;99.90;;;;;;5073582;28;20049;-63
2023/04/10 07:28:35;;;;;;;37.35;24.40;;;12.70;99.90;;;;;;5073065;28;20044;-65
2023/04/10 07:31:02;;;;;;;36.00;24.40;;;12.90;99.90;;;;;;5073475;28;20137;-64
2023/04/10 07:33:29;;;;;;;32.35;23.40;;;13.40;99.90;;;;;;5074427;28;20583;-62
2023/04/10 07:35:56;;;;;;;31.70;22.13;;;13.90;99.90;;;;;;5073035;28;20475;-63
2023/04/10 07:38:23;;;;;;;32.42;24.13;;;13.90;99.90;;;;;;5073572;28;20052;-63
2023/04/10 07:40:55;;;;;;;29.33;22.17;;;13.90;99.90;;;;;;5074530;28;20053;-62
2023/04/10 07:43:23;;;;;;;31.88;21.42;;;14.40;99.90;;;;;;5073329;28;20546;-63
2023/04/10 07:45:50;;;;;;;28.98;21.98;;;14.80;98.90;;;;;;5073344;28;20051;-63
2023/04/10 07:48:17;;;;;;;31.90;22.20;;;15.50;98.90;;;;;;5072639;28;20044;-62
2023/04/10 07:50:44;;;;;;;30.38;20.85;;;16.00;97.60;;;;;;5073049;28;20049;-62
2023/04/10 07:53:11;;;;;;;29.08;21.45;;;16.40;96.20;;;;;;5072848;28;20102;-62
2023/04/10 07:55:39;;;;;;;29.98;21.35;;;16.90;96.50;;;;;;5072222;28;20151;-64
2023/04/10 07:58:06;;;;;;;31.17;21.88;;;16.70;95.20;;;;;;5074418;28;20070;-63
2023/04/10 08:00:35;;;;;;;29.23;21.30;;;16.80;94.20;;;;;;5072925;28;20101;-63
2023/04/10 08:03:01;;;;;;;28.90;20.50;;;16.60;93.40;;;;;;5072128;28;20040;-64
2023/04/10 08:05:28;;;;;;;29.50;21.55;;;16.70;93.60;;;;;;5072787;28;20049;-62
2023/04/10 08:07:55;;;;;;;29.08;21.38;;;16.70;93.60;;;;;;5072610;28;20052;-64
2023/04/10 08:10:22;;;;;;;28.00;19.92;;;16.30;93.40;;;;;;5073410;28;20052;-64
2023/04/10 08:12:49;;;;;;;29.85;21.77;;;16.20;93.30;;;;;;5073930;28;20416;-64
2023/04/10 08:15:17;;;;;;;28.52;21.35;;;16.30;94.10;;;;;;5072969;28;20064;-63
2023/04/10 08:17:45;;;;;;;27.90;20.33;;;16.30;93.60;;;;;;5073392;28;20407;-64
2023/04/10 08:20:13;;;;;;;26.65;19.35;;;16.30;93.60;;;;;;5073802;28;20052;-63
2023/04/10 08:22:40;;;;;;;26.75;19.90;;;16.10;93.80;;;;;;5073608;28;20044;-63
2023/04/10 08:25:07;;;;;;;26.05;20.02;;;16.10;93.80;;;;;;5073245;28;20045;-63
2023/04/10 08:27:34;;;;;;;25.77;18.98;;;16.50;93.00;;;;;;5073796;28;20049;-62
2023/04/10 08:30:01;;;;;;;26.50;19.17;;;16.70;92.20;;;;;;5073543;28;20052;-63
2023/04/10 08:32:29;;;;;;;25.80;19.77;;;16.90;92.40;;;;;;5072299;28;20416;-64
2023/04/10 08:34:57;;;;;;;26.70;19.90;;;17.30;92.40;;;;;;5073341;28;20072;-62
2023/04/10 08:37:25;;;;;;;26.13;19.48;;;17.50;91.40;;;;;;5071891;28;20131;-64
2023/04/10 08:39:52;;;;;;;24.98;19.77;;;17.60;91.30;;;;;;5073556;28;20045;-64
2023/04/10 08:42:19;;;;;;;24.83;18.92;;;17.50;91.30;;;;;;5072274;28;20056;-63
2023/04/10 08:44:49;;;;;;;24.25;18.67;;;17.90;90.70;;;;;;5069676;28;20044;-64
2023/04/10 08:47:20;;;;;;;27.55;18.00;;;18.10;90.20;;;;;;5073261;28;20051;-63
2023/04/10 08:49:53;;;;;;;26.75;18.13;;;17.90;89.70;;;;;;5073098;28;20045;-63
2023/04/10 08:52:24;;;;;;;25.98;18.45;;;17.40;90.30;;;;;;5072677;28;20045;-63
2023/04/10 08:54:54;;;;;;;24.15;18.38;;;17.30;90.70;;;;;;5071788;28;20040;-63
2023/04/10 08:57:22;;;;;;;24.48;18.63;;;17.30;90.40;;;;;;5072449;28;20076;-63
2023/04/10 08:59:50;;;;;;;23.70;18.77;;;17.60;90.00;;;;;;5072327;28;20048;-63
2023/04/10 09:02:17;;;;;;;25.33;18.63;;;17.80;90.30;;;;;;5071734;28;20135;-64
2023/04/10 09:04:48;;;;;;;25.95;18.48;;;18.10;89.50;;;;;;5072830;28;20056;-64
2023/04/10 09:07:15;;;;;;;23.35;18.38;;;18.00;89.10;;;;;;5070906;28;20053;-64
2023/04/10 09:09:43;;;;;;;25.55;18.83;;;17.70;89.20;;;;;;5071756;28;20052;-63
2023/04/10 09:12:12;;;;;;;23.80;18.33;;;17.50;90.20;;;;;;5072804;28;20047;-63
2023/04/10 09:14:41;;;;;;;24.20;18.27;;;17.40;90.60;;;;;;5072006;28;20456;-64
2023/04/10 09:17:13;;;;;;;22.95;18.08;;;17.60;91.20;;;;;;5071539;28;20082;-64
2023/04/10 09:19:41;;;;;;;22.85;17.92;;;17.80;90.00;;;;;;5070667;28;20044;-64
2023/04/10 09:22:08;;;;;;;22.80;17.88;;;18.00;89.90;;;;;;5071690;28;20105;-63
2023/04/10 09:24:39;;;;;;;25.48;18.42;;;18.30;90.10;;;;;;5072344;28;20507;-63
2023/04/10 09:27:08;;;;;;;23.08;17.58;;;18.30;89.60;;;;;;5071896;28;20489;-65
2023/04/10 09:29:47;;;;;;;23.35;17.63;;;18.20;90.30;;;;;;5071136;28;20048;-63
2023/04/10 09:32:34;;;;;;;24.30;17.70;;;18.10;90.10;;;;;;5072027;28;20048;-65
2023/04/10 09:35:01;;;;;;;24.27;16.30;;;17.90;90.20;;;;;;5070767;28;20044;-64
2023/04/10 09:37:32;;;;;;;19.42;15.93;;;18.00;90.50;;;;;;5071124;28;20044;-64
2023/04/10 09:39:59;;;;;;;21.08;15.50;;;18.10;90.30;;;;;;5072194;28;20458;-64
2023/04/10 09:42:32;;;;;;;20.08;14.23;;;18.20;88.70;;;;;;5071156;28;20467;-63
2023/04/10 09:45:00;;;;;;;18.05;14.20;;;18.30;87.90;;;;;;5072371;28;20056;-64
2023/04/10 09:47:27;;;;;;;28.60;15.00;;;18.40;88.60;;;;;;5070973;28;20424;-64
2023/04/10 09:49:56;;;;;;;19.00;13.75;;;18.80;89.20;;;;;;5070420;28;20052;-64
2023/04/10 09:52:26;;;;;;;17.75;13.90;;;18.50;87.00;;;;;;5072043;28;20045;-63
2023/04/10 09:54:54;;;;;;;18.42;14.13;;;18.30;87.50;;;;;;5068478;28;20056;-64
2023/04/10 09:57:22;;;;;;;17.13;13.45;;;18.50;88.90;;;;;;5070824;28;20048;-64
2023/04/10 09:59:52;;;;;;;15.43;11.60;;;18.40;87.90;;;;;;5070984;28;20048;-62
2023/04/10 10:02:20;;;;;;;17.48;13.27;;;18.40;86.90;;;;;;5071554;28;20125;-64
2023/04/10 10:04:48;;;;;;;16.45;11.55;;;18.60;87.90;;;;;;5068619;28;20057;-63
2023/04/10 10:07:16;;;;;;;17.10;12.05;;;18.30;86.30;;;;;;5070570;28;20041;-64
2023/04/10 10:09:44;;;;;;;17.60;11.07;;;18.30;86.70;;;;;;5071486;28;20048;-63
2023/04/10 10:12:12;;;;;;;15.52;11.45;;;18.20;86.90;;;;;;5070879;28;20052;-63
2023/04/10 10:14:46;;;;;;;14.20;10.48;;;18.50;87.60;;;;;;5071769;28;20048;-64
2023/04/10 10:17:18;;;;;;;17.40;10.07;;;18.50;86.80;;;;;;5069147;28;20060;-63
2023/04/10 10:19:53;;;;;;;13.00;9.45;;;18.40;85.30;;;;;;5072081;28;20110;-64
2023/04/10 10:22:22;;;;;;;11.90;8.93;;;18.20;85.40;;;;;;5071963;28;20051;-62
2023/04/10 10:24:49;;;;;;;11.88;8.55;;;18.10;85.30;;;;;;5067865;28;20114;-63
2023/04/10 10:27:18;;;;;;;12.65;8.98;;;17.90;85.80;;;;;;5070522;28;20058;-64
2023/04/10 10:29:47;;;;;;;13.13;9.05;;;17.90;86.30;;;;;;5071653;28;20102;-62
2023/04/10 10:32:17;;;;;;;12.75;8.80;;;17.70;86.10;;;;;;5070325;28;20098;-64
2023/04/10 10:34:44;;;;;;;11.45;8.80;;;17.50;86.30;;;;;;5071655;28;20071;-64
2023/04/10 10:37:12;;;;;;;10.85;8.57;;;17.20;86.90;;;;;;5071305;28;20114;-63
2023/04/10 10:39:49;;;;;;;12.88;8.93;;;16.90;87.80;;;;;;5070602;28;20055;-64
2023/04/10 10:42:22;;;;;;;13.57;9.27;;;16.50;87.90;;;;;;5070725;28;20554;-62
2023/04/10 10:44:55;;;;;;;10.70;8.43;;;16.30;88.70;;;;;;5070023;28;20052;-63
2023/04/10 10:47:27;;;;;;;11.85;9.43;;;16.00;89.10;;;;;;5070341;28;20098;-64
2023/04/10 10:49:56;;;;;;;11.90;8.70;;;15.90;89.90;;;;;;5070260;28;20083;-63
2023/04/10 10:52:45;;;;;;;12.70;8.68;;;15.90;90.20;;;;;;5069887;28;20060;-64
2023/04/10 10:55:33;;;;;;;11.75;8.50;;;15.80;90.10;;;;;;5066792;28;20110;-63
2023/04/10 10:58:01;;;;;;;11.70;8.48;;;15.90;90.30;;;;;;5074979;28;20084;-64
2023/04/10 11:01:04;;;;;;;12.07;8.75;;;15.80;90.40;;;;;;5075167;28;20558;-64
2023/04/10 11:03:33;;;;;;;11.13;8.23;;;16.10;90.50;;;;;;5075395;28;20140;-63
2023/04/10 11:06:02;;;;;;;15.88;7.45;;;16.10;91.00;;;;;;5074276;28;20049;-64
2023/04/10 11:08:41;;;;;;;10.32;7.78;;;16.20;91.30;;;;;;5075291;28;20059;-62
2023/04/10 11:11:09;;;;;;;12.48;8.23;;;16.30;91.10;;;;;;5073984;28;20106;-63
2023/04/10 11:13:38;;;;;;;11.40;7.93;;;16.40;91.30;;;;;;5074309;28;20051;-63
2023/04/10 11:16:07;;;;;;;9.73;7.15;;;16.60;91.60;;;;;;5075257;28;20040;-63
2023/04/10 11:19:06;;;;;;;9.07;7.47;;;16.60;90.80;;;;;;5075109;28;20053;-63
2023/04/10 11:21:34;;;;;;;8.73;6.70;;;16.80;90.60;;;;;;5073215;28;20090;-62
2023/04/10 11:24:05;;;;;;;8.18;6.80;;;16.80;90.50;;;;;;5074167;28;20123;-63
2023/04/10 11:26:40;;;;;;;9.10;6.47;;;16.90;90.20;;;;;;5072993;28;20048;-63
2023/04/10 11:29:22;;;;;;;24.80;7.00;;;16.60;89.70;;;;;;5073780;28;20094;-64
2023/04/10 11:31:56;;;;;;;8.80;6.38;;;16.50;90.10;;;;;;5072958;28;20052;-62
2023/04/10 11:34:26;;;;;;;10.23;6.63;;;16.30;90.10;;;;;;5073039;28;20044;-63
2023/04/10 11:36:54;;;;;;;9.63;6.40;;;16.40;90.50;;;;;;5074766;28;20051;-63
2023/04/10 11:39:21;;;;;;;9.60;6.43;;;16.30;90.40;;;;;;5074569;28;20128;-63
2023/04/10 11:41:49;;;;;;;7.60;5.80;;;16.20;90.30;;;;;;5073053;28;20048;-63
2023/04/10 11:44:19;;;;;;;7.65;5.72;;;16.10;90.30;;;;;;5073229;28;20071;-63
2023/04/10 11:46:49;;;;;;;10.70;6.22;;;16.00;90.90;;;;;;5074476;28;20040;-63
2023/04/10 11:49:19;;;;;;;7.53;5.07;;;16.00;90.60;;;;;;5072347;28;20143;-63
2023/04/10 11:51:48;;;;;;;7.22;5.20;;;15.90;90.30;;;;;;5072991;28;20049;-61
2023/04/10 11:54:17;;;;;;;8.73;6.10;;;15.90;91.10;;;;;;5073732;28;20109;-63
2023/04/10 11:56:44;;;;;;;6.75;5.18;;;16.10;90.80;;;;;;5073313;28;20110;-63
2023/04/10 11:59:13;;;;;;;8.88;5.13;;;16.20;90.90;;;;;;5074365;28;20390;-62
2023/04/10 12:01:40;;;;;;;7.38;5.22;;;16.40;90.40;;;;;;5072287;28;20127;-63
2023/04/10 12:04:14;;;;;;;7.43;5.20;;;16.70;90.20;;;;;;5073996;28;20048;-62
2023/04/10 12:06:44;;;;;;;6.35;4.75;;;17.10;90.00;;;;;;5072160;28;20086;-62
2023/04/10 12:09:16;;;;;;;5.50;4.28;;;17.20;89.00;;;;;;5072497;28;20098;-64
2023/04/10 12:11:50;;;;;;;7.45;4.53;;;17.30;89.60;;;;;;5073969;28;20056;-64
2023/04/10 12:14:17;;;;;;;5.97;4.65;;;17.40;89.70;;;;;;5073813;28;20510;-63
2023/04/10 12:16:45;;;;;;;10.60;4.68;;;17.80;90.10;;;;;;5072348;28;20076;-64
2023/04/10 12:19:12;;;;;;;6.00;4.30;;;18.40;88.50;;;;;;5073059;28;20412;-63
2023/04/10 12:21:41;;;;;;;6.47;4.75;;;18.60;87.10;;;;;;5073210;28;20056;-63
2023/04/10 12:24:07;;;;;;;8.55;4.30;;;19.10;86.20;;;;;;5073075;28;20111;-63
2023/04/10 12:26:36;;;;;;;5.45;3.88;;;19.50;85.00;;;;;;5072248;28;20106;-63
2023/04/10 12:29:05;;;;;;;10.73;4.50;;;19.80;84.50;;;;;;5074093;28;20052;-64
2023/04/10 12:31:33;;;;;;;5.68;4.15;;;20.00;83.20;;;;;;5071244;28;20123;-63
2023/04/10 12:34:01;;;;;;;6.75;4.20;;;20.00;84.80;;;;;;5073341;28;20534;-64
2023/04/10 12:36:30;;;;;;;5.95;4.47;;;19.40;83.60;;;;;;5072873;28;20102;-64
2023/04/10 12:38:58;;;;;;;5.95;4.35;;;18.90;84.20;;;;;;5072467;28;20052;-64
2023/04/10 12:41:26;;;;;;;7.00;4.13;;;18.40;85.40;;;;;;5073190;28;20492;-63
2023/04/10 12:44:07;;;;;;;7.30;4.22;;;18.00;86.40;;;;;;5072757;28;20094;-63